Time;durP1;ratioP1;P1;durP2;ratioP2;P2;SDS_P1;SDS_P2;PMS_P1;PMS_P2;Temp;Humidity;BMP_temperature;BMP_pressure;BME280_temperature;BME280_humidity;BME280_pressure;Samples;Min_cycle;Max_cycle;Signal;HPM_P1;HPM_P2
2021/10/25 11:56:31;;;;;;;20.13;17.33;;;10.60;99.90;;;;;;5124315;27;20932;-74
2021/10/25 11:58:57;;;;;;;29.80;23.60;;;10.50;99.90;;;;;;5112038;28;20073;-81
2021/10/25 12:01:25;;;;;;;23.50;19.90;;;10.60;99.90;;;;;;5112316;28;20090;-84
2021/10/25 12:03:50;;;;;;;25.53;20.93;;;10.60;99.90;;;;;;5109165;28;20142;-77
2021/10/25 12:06:22;;;;;;;22.57;20.13;;;10.60;99.90;;;;;;5107270;28;20130;-76
2021/10/25 12:08:58;;;;;;;44.70;40.75;;;10.70;99.90;;;;;;5127196;28;20047;-75
2021/10/25 12:11:31;;;;;;;23.77;19.47;;;10.80;99.90;;;;;;5107073;28;20077;-73
2021/10/25 12:14:02;;;;;;;22.03;19.03;;;10.90;99.90;;;;;;5108256;28;20134;-74
2021/10/25 12:16:28;;;;;;;23.65;19.73;;;10.90;99.90;;;;;;5107751;28;20058;-75
2021/10/25 12:18:54;;;;;;;21.97;18.90;;;10.90;99.90;;;;;;5125943;28;20051;-74
2021/10/25 12:21:30;;;;;;;27.27;20.43;;;11.00;99.90;;;;;;5125751;28;20092;-74
2021/10/25 12:23:55;;;;;;;31.13;27.87;;;11.00;99.90;;;;;;5126557;28;20080;-73
2021/10/25 12:26:21;;;;;;;23.87;18.63;;;11.00;99.90;;;;;;5107208;28;20043;-71
2021/10/25 12:28:46;;;;;;;21.43;18.37;;;11.10;99.90;;;;;;5126771;28;20043;-75
2021/10/25 12:33:42;;;;;;;20.27;17.97;;;11.20;99.90;;;;;;5105687;27;20420;-74
2021/10/25 12:36:20;;;;;;;22.93;18.23;;;11.30;99.90;;;;;;5095809;28;20051;-71
2021/10/25 12:38:49;;;;;;;24.43;19.53;;;11.40;99.90;;;;;;5100291;28;20075;-69
2021/10/25 12:41:15;;;;;;;24.83;18.43;;;11.50;99.90;;;;;;5101806;28;20040;-81
2021/10/25 12:43:46;;;;;;;21.73;18.30;;;11.50;99.90;;;;;;5111606;28;20424;-78
2021/10/25 12:46:18;;;;;;;19.90;17.65;;;11.60;99.90;;;;;;5107700;28;20051;-77
2021/10/25 12:48:47;;;;;;;23.73;18.27;;;11.60;99.90;;;;;;5108380;28;20048;-76
2021/10/25 12:51:14;;;;;;;20.23;16.80;;;11.70;99.90;;;;;;5106037;28;20423;-76
2021/10/25 12:53:45;;;;;;;21.17;17.97;;;11.70;99.90;;;;;;5103583;28;20048;-75
2021/10/25 12:56:10;;;;;;;29.35;26.42;;;11.80;99.90;;;;;;5104971;28;20495;-76
2021/10/25 12:58:36;;;;;;;21.60;17.73;;;11.80;99.90;;;;;;5104886;28;20215;-75
2021/10/25 13:01:12;;;;;;;20.03;17.23;;;11.80;99.90;;;;;;5104555;28;20055;-75
2021/10/25 13:03:46;;;;;;;24.63;19.13;;;11.80;99.90;;;;;;5104623;28;20117;-71
2021/10/25 13:06:12;;;;;;;22.30;18.13;;;11.80;99.90;;;;;;5103051;28;20074;-73
2021/10/25 13:08:38;;;;;;;24.93;20.43;;;11.70;99.90;;;;;;5103536;28;20101;-73
2021/10/25 13:11:06;;;;;;;24.27;19.30;;;11.70;99.90;;;;;;5129407;27;20464;-72
2021/10/25 13:13:35;;;;;;;22.63;19.00;;;11.80;99.90;;;;;;5104613;28;20060;-73
2021/10/25 13:16:02;;;;;;;26.63;18.20;;;11.80;99.90;;;;;;5103439;28;20036;-72
2021/10/25 13:18:28;;;;;;;24.20;20.00;;;11.80;99.90;;;;;;5103814;28;20043;-72
2021/10/25 13:20:54;;;;;;;24.53;19.20;;;11.80;99.90;;;;;;5105047;28;20051;-72
2021/10/25 13:23:22;;;;;;;24.30;19.77;;;11.80;99.90;;;;;;5104022;28;20050;-73
2021/10/25 13:25:49;;;;;;;27.00;20.30;;;11.90;99.90;;;;;;5105369;28;20123;-70
2021/10/25 13:28:15;;;;;;;27.00;21.03;;;11.90;99.90;;;;;;5104464;28;20043;-70
2021/10/25 13:30:41;;;;;;;25.83;19.17;;;11.90;99.90;;;;;;5103718;28;20035;-74
2021/10/25 13:33:07;;;;;;;25.03;20.67;;;11.90;99.90;;;;;;5104511;28;20047;-73
2021/10/25 13:35:32;;;;;;;22.17;19.87;;;12.00;99.90;;;;;;5102905;28;20074;-77
2021/10/25 13:37:58;;;;;;;26.43;19.27;;;12.10;99.90;;;;;;5102795;28;20446;-76
2021/10/25 13:40:30;;;;;;;24.47;18.90;;;12.20;99.90;;;;;;5102808;28;20232;-72
2021/10/25 13:42:58;;;;;;;22.20;18.80;;;12.20;99.90;;;;;;5102329;28;20047;-77
2021/10/25 13:45:24;;;;;;;23.67;19.80;;;12.20;99.90;;;;;;5090943;28;20469;-72
2021/10/25 13:47:50;;;;;;;23.50;18.33;;;12.30;99.90;;;;;;5091472;28;20071;-72
2021/10/25 13:50:17;;;;;;;22.83;17.47;;;12.20;99.90;;;;;;5088639;28;20079;-73
2021/10/25 13:52:43;;;;;;;24.60;18.30;;;12.30;99.90;;;;;;5090801;28;20574;-74
2021/10/25 13:55:09;;;;;;;25.90;20.50;;;12.20;99.90;;;;;;5090527;28;20503;-76
2021/10/25 13:57:39;;;;;;;23.13;18.50;;;12.30;99.90;;;;;;5088425;28;20523;-75
2021/10/25 14:00:15;;;;;;;21.93;19.03;;;12.30;99.90;;;;;;5086785;28;20044;-73
2021/10/25 14:02:43;;;;;;;21.67;18.63;;;12.30;99.90;;;;;;5091412;28;20079;-74
2021/10/25 14:05:11;;;;;;;24.60;18.33;;;12.40;99.90;;;;;;5088750;28;20039;-73
2021/10/25 14:07:37;;;;;;;20.53;17.17;;;12.40;99.90;;;;;;5090724;28;20098;-73
2021/10/25 14:10:26;;;;;;;19.17;17.00;;;12.40;99.90;;;;;;5089568;28;20495;-75
2021/10/25 14:12:54;;;;;;;21.87;18.40;;;12.40;99.90;;;;;;5086860;28;20060;-72
2021/10/25 14:15:29;;;;;;;22.43;18.23;;;12.40;99.90;;;;;;5087899;28;20048;-72
2021/10/25 14:17:57;;;;;;;23.13;18.57;;;12.40;99.90;;;;;;5088166;28;20492;-71
2021/10/25 14:20:26;;;;;;;21.87;17.87;;;12.40;99.90;;;;;;5088973;28;20044;-71
2021/10/25 14:22:55;;;;;;;21.07;17.93;;;12.30;99.90;;;;;;5090791;28;20051;-77
2021/10/25 14:25:23;;;;;;;21.33;17.80;;;12.30;99.90;;;;;;5088265;28;20043;-76
2021/10/25 14:27:50;;;;;;;22.80;18.90;;;12.20;99.90;;;;;;5089452;28;20048;-76
2021/10/25 14:30:17;;;;;;;20.37;18.20;;;12.20;99.90;;;;;;5089135;28;20398;-69
2021/10/25 14:32:42;;;;;;;25.50;19.70;;;12.20;99.90;;;;;;5088590;28;20044;-71
2021/10/25 14:35:09;;;;;;;25.23;18.80;;;12.20;99.90;;;;;;5089615;28;20511;-70
2021/10/25 14:37:40;;;;;;;24.97;20.43;;;12.20;99.90;;;;;;5090221;28;20052;-70
2021/10/25 14:40:10;;;;;;;29.37;21.67;;;12.10;99.90;;;;;;5088011;28;20051;-71
2021/10/25 14:42:37;;;;;;;31.33;26.87;;;12.10;99.90;;;;;;5088939;28;20062;-71
2021/10/25 14:48:14;;;;;;;23.83;21.03;;;12.10;99.90;;;;;;5088039;28;20059;-74
2021/10/25 14:53:34;;;;;;;27.80;21.03;;;12.10;99.90;;;;;;5089032;28;20048;-71
2021/10/25 14:56:04;;;;;;;29.17;21.90;;;12.10;99.90;;;;;;5089716;28;20444;-72
2021/10/25 14:58:30;;;;;;;29.17;24.50;;;12.10;99.90;;;;;;5088593;28;20051;-72
2021/10/25 15:00:58;;;;;;;27.23;20.00;;;12.20;99.90;;;;;;5087425;28;20127;-68
2021/10/25 15:03:24;;;;;;;26.10;19.77;;;12.20;99.90;;;;;;5088043;28;20521;-70
2021/10/25 15:05:52;;;;;;;27.80;18.97;;;12.10;99.90;;;;;;5090664;28;20134;-70
2021/10/25 15:08:18;;;;;;;26.87;19.90;;;12.10;99.90;;;;;;5088958;28;20047;-70
2021/10/25 15:10:46;;;;;;;25.70;19.93;;;12.10;99.90;;;;;;5088435;28;20089;-70
2021/10/25 15:13:12;;;;;;;25.07;18.40;;;12.10;99.90;;;;;;5088481;28;20106;-76
2021/10/25 15:15:37;;;;;;;26.87;19.57;;;12.10;99.90;;;;;;5088276;28;20048;-75
2021/10/25 15:18:03;;;;;;;31.33;22.07;;;12.10;99.90;;;;;;5089735;28;20044;-76
2021/10/25 15:20:28;;;;;;;24.77;18.73;;;12.10;99.90;;;;;;5088199;28;20055;-77
2021/10/25 15:22:54;;;;;;;27.07;19.90;;;12.10;99.90;;;;;;5088061;28;20040;-72
2021/10/25 15:25:21;;;;;;;24.33;20.23;;;12.20;99.90;;;;;;5088908;28;20040;-72
2021/10/25 15:27:46;;;;;;;25.80;22.57;;;12.10;99.90;;;;;;5089427;28;20047;-74
2021/10/25 15:30:15;;;;;;;25.63;22.10;;;12.10;99.90;;;;;;5087312;28;20092;-70
2021/10/25 15:32:42;;;;;;;29.57;20.50;;;12.10;99.90;;;;;;5089307;28;20056;-72
2021/10/25 15:35:09;;;;;;;25.83;20.60;;;12.20;99.90;;;;;;5087108;28;20048;-73
2021/10/25 15:37:35;;;;;;;24.43;19.80;;;12.30;99.90;;;;;;5087313;28;20377;-70
2021/10/25 15:40:04;;;;;;;24.50;19.23;;;12.20;99.90;;;;;;5089886;28;20104;-69
2021/10/25 15:42:30;;;;;;;25.10;18.60;;;12.30;99.90;;;;;;5086929;28;20122;-71
2021/10/25 15:44:57;;;;;;;26.00;19.03;;;12.30;99.90;;;;;;5088157;28;20244;-79
2021/10/25 15:47:24;;;;;;;22.63;19.37;;;12.40;99.90;;;;;;5088724;28;20047;-71
2021/10/25 15:49:51;;;;;;;25.33;20.53;;;12.40;99.90;;;;;;5088753;28;20515;-70
2021/10/25 15:52:17;;;;;;;23.90;20.73;;;12.40;99.90;;;;;;5089029;28;20048;-69
2021/10/25 15:54:44;;;;;;;27.00;20.20;;;12.50;99.90;;;;;;5089141;28;20488;-74
2021/10/25 15:57:13;;;;;;;24.47;20.40;;;12.50;99.90;;;;;;5086240;28;20403;-72
2021/10/25 15:59:40;;;;;;;27.87;19.97;;;12.50;99.90;;;;;;5088248;28;20044;-71
2021/10/25 16:02:09;;;;;;;29.03;25.17;;;12.50;99.90;;;;;;5088858;28;20039;-71
2021/10/25 16:04:35;;;;;;;24.80;20.27;;;12.50;99.90;;;;;;5087675;28;20054;-71
2021/10/25 16:07:05;;;;;;;27.47;20.13;;;12.50;99.90;;;;;;5088042;28;20138;-70
2021/10/25 16:09:31;;;;;;;27.77;21.50;;;12.50;99.90;;;;;;5088610;28;20529;-71
2021/10/25 16:11:59;;;;;;;26.90;22.70;;;12.40;99.90;;;;;;5087937;28;20040;-68
2021/10/25 16:14:28;;;;;;;27.03;22.33;;;12.40;99.90;;;;;;5087115;28;20134;-71
2021/10/25 16:16:55;;;;;;;27.70;23.60;;;12.40;99.90;;;;;;5089155;28;20040;-70
2021/10/25 16:19:21;;;;;;;30.30;23.57;;;12.40;99.90;;;;;;5086716;28;20052;-71
2021/10/25 16:21:47;;;;;;;38.63;34.83;;;12.40;99.90;;;;;;5088422;28;20127;-71
2021/10/25 16:24:13;;;;;;;29.47;24.93;;;12.30;99.90;;;;;;5088216;28;20447;-71
2021/10/25 16:26:39;;;;;;;28.93;23.87;;;12.30;99.90;;;;;;5087021;28;20097;-70
2021/10/25 16:29:04;;;;;;;28.37;23.77;;;12.30;99.90;;;;;;5088313;28;20040;-69
2021/10/25 16:31:30;;;;;;;29.07;24.83;;;12.30;99.90;;;;;;5087553;28;20083;-69
2021/10/25 16:33:56;;;;;;;29.37;25.67;;;12.20;99.90;;;;;;5088416;28;20048;-71
2021/10/25 16:36:22;;;;;;;27.77;24.57;;;12.20;99.90;;;;;;5088220;28;20457;-70
2021/10/25 16:38:48;;;;;;;33.80;26.30;;;12.20;99.90;;;;;;5088019;28;20044;-70
2021/10/25 16:41:14;;;;;;;31.30;25.57;;;12.20;99.90;;;;;;5088623;28;20116;-70
2021/10/25 16:43:40;;;;;;;31.03;26.00;;;12.20;99.90;;;;;;5088964;28;20051;-71
2021/10/25 16:46:07;;;;;;;30.67;24.87;;;12.20;99.90;;;;;;5087619;28;20048;-70
2021/10/25 16:48:37;;;;;;;30.37;25.43;;;12.20;99.90;;;;;;5087317;28;20055;-71
2021/10/25 16:51:10;;;;;;;32.33;26.67;;;12.20;99.90;;;;;;5087470;28;20492;-70
2021/10/25 16:53:49;;;;;;;31.30;24.83;;;12.20;99.90;;;;;;5087005;28;20077;-70
2021/10/25 17:09:49;;;;;;;31.70;26.37;;;12.20;99.90;;;;;;5087294;28;20210;-71
2021/10/25 17:12:17;;;;;;;31.10;25.93;;;12.20;99.90;;;;;;5085719;28;20139;-71
2021/10/25 17:14:42;;;;;;;33.47;26.77;;;12.20;99.90;;;;;;5086583;28;20047;-71
2021/10/25 17:17:08;;;;;;;35.37;30.13;;;12.20;99.90;;;;;;5087846;28;20048;-71
2021/10/25 17:19:34;;;;;;;33.27;28.30;;;12.20;99.90;;;;;;5089054;28;20123;-69
2021/10/25 17:22:03;;;;;;;32.97;29.43;;;12.20;99.90;;;;;;5088343;28;20036;-69
2021/10/25 17:24:29;;;;;;;34.93;29.00;;;12.20;99.90;;;;;;5090090;28;20068;-70
2021/10/25 17:26:54;;;;;;;37.97;29.20;;;12.10;99.90;;;;;;5091455;28;20226;-70
2021/10/25 17:29:20;;;;;;;39.40;28.87;;;12.20;99.90;;;;;;5090052;28;20063;-69
2021/10/25 17:31:46;;;;;;;36.50;30.50;;;12.10;99.90;;;;;;5090604;28;20041;-70
2021/10/25 17:34:15;;;;;;;33.70;29.23;;;12.10;99.90;;;;;;5091152;28;20524;-71
2021/10/25 17:36:41;;;;;;;33.80;30.10;;;12.10;99.90;;;;;;5090280;28;20036;-70
2021/10/25 17:39:08;;;;;;;35.00;30.37;;;12.10;99.90;;;;;;5090762;28;20418;-70
2021/10/25 17:41:35;;;;;;;36.70;30.13;;;12.10;99.90;;;;;;5090389;28;20040;-70
2021/10/25 17:44:03;;;;;;;34.60;30.37;;;12.00;99.90;;;;;;5089382;28;20060;-71
2021/10/25 17:46:28;;;;;;;38.23;31.50;;;12.00;99.90;;;;;;5090522;28;20096;-71
2021/10/25 17:48:55;;;;;;;38.63;29.77;;;12.00;99.90;;;;;;5090293;28;20169;-71
2021/10/25 17:51:26;;;;;;;40.80;31.97;;;12.00;99.90;;;;;;5090436;28;20448;-71
2021/10/25 17:53:52;;;;;;;33.97;29.20;;;12.00;99.90;;;;;;5088446;28;20043;-71
2021/10/25 17:56:18;;;;;;;38.43;30.93;;;12.00;99.90;;;;;;5089534;28;20124;-71
2021/10/25 17:58:44;;;;;;;37.07;29.83;;;12.00;99.90;;;;;;5089312;28;20415;-71
2021/10/25 18:01:09;;;;;;;36.43;29.80;;;12.00;99.90;;;;;;5090860;28;20481;-70
2021/10/25 18:05:55;;;;;;;39.03;30.23;;;11.90;99.90;;;;;;5103755;27;1186595;-69
2021/10/25 18:08:26;;;;;;;35.37;30.83;;;11.90;99.90;;;;;;5125728;27;20175;-75
2021/10/25 18:10:52;;;;;;;30.83;27.50;;;12.00;99.90;;;;;;5106880;28;20051;-70
2021/10/25 18:13:20;;;;;;;30.97;27.57;;;12.00;99.90;;;;;;5126285;27;20043;-72
2021/10/25 18:15:47;;;;;;;32.77;29.27;;;12.00;99.90;;;;;;5107663;27;20127;-72
2021/10/25 18:18:16;;;;;;;31.07;27.73;;;12.00;99.90;;;;;;5125398;27;20407;-72
2021/10/25 18:20:42;;;;;;;32.80;27.63;;;12.10;99.90;;;;;;5107571;27;20059;-72
2021/10/25 18:23:09;;;;;;;32.57;29.13;;;12.00;99.90;;;;;;5108262;28;20051;-75
2021/10/25 18:25:36;;;;;;;33.03;26.10;;;12.00;99.90;;;;;;5106505;27;20052;-74
2021/10/25 18:28:04;;;;;;;33.70;27.63;;;12.00;99.90;;;;;;5125651;27;20462;-73
2021/10/25 18:30:31;;;;;;;32.77;27.40;;;12.10;99.90;;;;;;5125268;27;20255;-72
2021/10/25 18:32:57;;;;;;;30.00;25.97;;;12.10;99.90;;;;;;5135361;27;20054;-71
2021/10/25 18:35:23;;;;;;;31.23;25.80;;;12.20;99.90;;;;;;5145926;27;20038;-72
2021/10/25 18:37:49;;;;;;;29.80;26.00;;;12.10;99.90;;;;;;5146343;27;20098;-73
2021/10/25 18:40:16;;;;;;;27.97;24.97;;;12.10;99.90;;;;;;5145782;27;20129;-73
2021/10/25 18:42:43;;;;;;;26.30;23.03;;;12.10;99.90;;;;;;5146810;27;20401;-73
2021/10/25 18:45:10;;;;;;;30.07;25.40;;;12.20;99.90;;;;;;5145646;27;20533;-74
2021/10/25 18:47:42;;;;;;;28.10;25.00;;;12.20;99.90;;;;;;5127481;27;20050;-75
2021/10/25 18:50:10;;;;;;;25.33;22.60;;;12.20;99.90;;;;;;5128105;27;20051;-74
2021/10/25 18:52:37;;;;;;;28.57;24.10;;;12.30;99.90;;;;;;5126826;27;20039;-74
2021/10/25 18:55:12;;;;;;;26.23;23.03;;;12.30;99.90;;;;;;5145761;27;20034;-75
2021/10/25 18:57:38;;;;;;;25.20;22.50;;;12.30;99.90;;;;;;5127809;27;20419;-75
2021/10/25 19:00:06;;;;;;;27.03;24.23;;;12.30;99.90;;;;;;5145871;27;20436;-76
2021/10/25 19:02:33;;;;;;;26.03;23.23;;;12.30;99.90;;;;;;5146002;27;20458;-73
2021/10/25 19:05:01;;;;;;;25.97;23.20;;;12.30;99.90;;;;;;5121237;28;20058;-76
2021/10/25 19:07:27;;;;;;;26.63;22.43;;;12.40;99.90;;;;;;5102744;28;20088;-77
2021/10/25 19:09:52;;;;;;;25.53;22.83;;;12.40;99.90;;;;;;5107328;28;20131;-77
2021/10/25 19:12:19;;;;;;;24.97;22.37;;;12.40;99.90;;;;;;5106351;28;20046;-74
2021/10/25 19:14:45;;;;;;;24.90;22.27;;;12.40;99.90;;;;;;5106010;28;20058;-75
2021/10/25 19:17:12;;;;;;;25.27;22.33;;;12.40;99.90;;;;;;5093570;28;20090;-76
2021/10/25 19:19:39;;;;;;;24.57;21.57;;;12.40;99.90;;;;;;5110857;28;20055;-75
2021/10/25 19:22:04;;;;;;;23.40;20.73;;;12.40;99.90;;;;;;5092210;28;20043;-75
2021/10/25 19:24:30;;;;;;;24.67;22.07;;;12.40;99.90;;;;;;5092112;28;20491;-75
2021/10/25 19:26:58;;;;;;;25.47;21.13;;;12.30;99.90;;;;;;5093175;28;20464;-76
2021/10/25 19:29:24;;;;;;;24.23;21.63;;;12.30;99.90;;;;;;5109662;28;20031;-77
